Time;durP1;ratioP1;P1;durP2;ratioP2;P2;SDS_P1;SDS_P2;PMS_P1;PMS_P2;Temp;Humidity;BMP_temperature;BMP_pressure;BME280_temperature;BME280_humidity;BME280_pressure;Samples;Min_cycle;Max_cycle;Signal;HPM_P1;HPM_P2
2023/12/14 00:00:31;;;;;;;50.50;28.67;;;9.60;99.90;;;;;;5032498;28;20181;-87
2023/12/14 00:02:57;;;;;;;43.77;28.60;;;9.80;99.90;;;;;;5031706;28;20200;-86
2023/12/14 00:05:23;;;;;;;47.60;28.50;;;9.80;99.90;;;;;;5032376;28;20174;-87
2023/12/14 00:07:49;;;;;;;43.40;26.83;;;9.80;99.90;;;;;;5031551;28;20284;-85
2023/12/14 00:10:14;;;;;;;39.83;26.03;;;9.70;99.90;;;;;;5032159;28;20217;-84
2023/12/14 00:12:40;;;;;;;39.83;24.77;;;9.50;99.90;;;;;;5031574;28;20553;-85
2023/12/14 00:15:06;;;;;;;43.53;25.87;;;9.70;99.90;;;;;;5031972;28;20602;-85
2023/12/14 00:17:32;;;;;;;39.33;24.67;;;9.70;99.90;;;;;;5030397;28;20176;-86
2023/12/14 00:19:57;;;;;;;42.17;24.93;;;9.80;99.90;;;;;;5030762;28;20174;-84
2023/12/14 00:22:24;;;;;;;40.07;25.87;;;9.70;99.90;;;;;;5031743;28;20173;-85
2023/12/14 00:24:50;;;;;;;40.43;25.13;;;9.70;99.90;;;;;;5031099;28;20170;-86
2023/12/14 00:27:15;;;;;;;42.20;25.13;;;9.70;99.90;;;;;;5031918;28;20227;-86
2023/12/14 00:29:41;;;;;;;38.90;23.80;;;9.70;99.90;;;;;;5031638;28;20681;-86
2023/12/14 00:32:06;;;;;;;41.73;25.97;;;9.70;99.90;;;;;;5030910;28;20197;-86
2023/12/14 00:34:32;;;;;;;47.30;27.70;;;9.70;99.90;;;;;;5031801;28;20652;-85
2023/12/14 00:36:59;;;;;;;41.60;25.73;;;9.80;99.90;;;;;;5031638;28;20638;-85
2023/12/14 00:39:24;;;;;;;45.47;26.40;;;9.90;99.90;;;;;;5029576;28;20188;-87
2023/12/14 00:41:50;;;;;;;46.50;26.70;;;9.80;99.90;;;;;;5031261;28;20637;-85
2023/12/14 00:44:16;;;;;;;44.83;27.60;;;9.80;99.90;;;;;;5031574;28;20185;-86
2023/12/14 00:46:41;;;;;;;45.53;27.27;;;9.80;99.90;;;;;;5031372;28;20169;-85
2023/12/14 00:49:07;;;;;;;48.17;30.07;;;9.80;99.90;;;;;;5030733;28;20169;-84
2023/12/14 00:51:33;;;;;;;46.63;26.47;;;9.70;99.90;;;;;;5031888;28;20251;-85
2023/12/14 00:53:59;;;;;;;48.17;29.20;;;9.60;99.90;;;;;;5030925;28;20617;-84
2023/12/14 00:56:24;;;;;;;53.10;29.50;;;9.70;99.90;;;;;;5030562;28;20224;-86
2023/12/14 00:58:50;;;;;;;47.97;31.23;;;9.60;99.90;;;;;;5031250;28;20655;-83
2023/12/14 01:01:15;;;;;;;50.10;30.37;;;9.70;99.90;;;;;;5031544;28;20733;-85
2023/12/14 01:03:41;;;;;;;53.13;30.00;;;9.70;99.90;;;;;;5031304;28;20640;-85
2023/12/14 01:06:07;;;;;;;49.23;29.10;;;9.70;99.90;;;;;;5029877;28;20220;-87
2023/12/14 01:08:32;;;;;;;50.47;30.40;;;9.70;99.90;;;;;;5031491;28;20263;-84
2023/12/14 01:10:58;;;;;;;52.20;29.93;;;9.70;99.90;;;;;;5030470;28;20213;-84
2023/12/14 01:13:24;;;;;;;56.03;31.53;;;9.80;99.90;;;;;;5031470;28;20173;-84
2023/12/14 01:15:49;;;;;;;57.67;33.50;;;9.80;99.90;;;;;;5030057;28;20178;-85
2023/12/14 01:18:17;;;;;;;48.77;29.67;;;9.90;99.90;;;;;;5030540;28;20173;-87
2023/12/14 01:20:42;;;;;;;56.30;32.50;;;9.80;99.90;;;;;;5031171;28;20245;-85
2023/12/14 01:23:09;;;;;;;55.23;33.53;;;9.80;99.90;;;;;;5031130;28;20723;-87
2023/12/14 01:25:36;;;;;;;58.20;34.17;;;9.80;99.90;;;;;;5030923;28;20173;-86
2023/12/14 01:28:01;;;;;;;51.60;30.70;;;9.70;99.90;;;;;;5031804;28;20174;-86
2023/12/14 01:30:27;;;;;;;57.73;32.67;;;9.70;99.90;;;;;;5036087;28;20220;-88
2023/12/14 01:32:53;;;;;;;60.70;35.03;;;9.60;99.90;;;;;;5034194;28;20560;-86
2023/12/14 01:35:18;;;;;;;53.00;31.67;;;9.60;99.90;;;;;;5034397;28;20181;-85
2023/12/14 01:37:44;;;;;;;56.83;33.23;;;9.60;99.90;;;;;;5034967;28;20181;-84
2023/12/14 01:40:10;;;;;;;60.67;32.43;;;9.60;99.90;;;;;;5034771;28;20170;-83
2023/12/14 01:42:36;;;;;;;55.23;31.37;;;9.70;99.90;;;;;;5033815;28;20177;-84
2023/12/14 01:45:01;;;;;;;51.53;28.10;;;9.60;99.90;;;;;;5034314;28;20174;-84
2023/12/14 01:47:27;;;;;;;49.03;28.67;;;9.70;99.90;;;;;;5034492;28;20583;-85
2023/12/14 01:49:53;;;;;;;53.00;29.93;;;9.70;99.90;;;;;;5035706;28;20232;-84
2023/12/14 01:52:18;;;;;;;54.53;31.80;;;9.60;99.90;;;;;;5034091;28;20185;-84
2023/12/14 01:54:44;;;;;;;48.23;28.33;;;9.60;99.90;;;;;;5034133;28;20224;-85
2023/12/14 01:57:10;;;;;;;46.43;27.37;;;9.60;99.90;;;;;;5034013;28;20176;-85
2023/12/14 01:59:35;;;;;;;47.13;27.47;;;9.50;99.90;;;;;;5033454;28;20660;-83
2023/12/14 02:02:02;;;;;;;44.67;26.50;;;9.50;99.90;;;;;;5033856;28;20225;-84
2023/12/14 02:04:28;;;;;;;39.27;24.27;;;9.50;99.90;;;;;;5034245;28;20201;-84
2023/12/14 02:06:55;;;;;;;44.00;25.90;;;9.40;99.90;;;;;;5035409;28;20170;-85
2023/12/14 02:09:20;;;;;;;50.57;29.30;;;9.40;99.90;;;;;;5033104;28;20247;-85
2023/12/14 02:11:46;;;;;;;48.93;28.30;;;9.40;99.90;;;;;;5033674;28;20173;-87
2023/12/14 02:14:12;;;;;;;52.30;27.53;;;9.40;99.90;;;;;;5033230;28;20290;-85
2023/12/14 02:16:38;;;;;;;48.97;28.80;;;9.40;99.90;;;;;;5035392;28;20687;-85
2023/12/14 02:19:04;;;;;;;54.23;29.87;;;9.40;99.90;;;;;;5033294;28;20247;-86
2023/12/14 02:21:30;;;;;;;52.57;30.13;;;9.40;99.90;;;;;;5034036;28;20192;-84
2023/12/14 02:23:56;;;;;;;55.70;31.67;;;9.40;99.90;;;;;;5033927;28;20634;-85
2023/12/14 02:26:21;;;;;;;53.60;30.73;;;9.40;99.90;;;;;;5031997;28;20204;-86
2023/12/14 02:28:47;;;;;;;55.53;33.07;;;9.40;99.90;;;;;;5033747;28;20578;-85
2023/12/14 02:31:13;;;;;;;55.73;32.10;;;9.40;99.90;;;;;;5032572;28;20612;-83
2023/12/14 02:33:39;;;;;;;56.57;34.63;;;9.20;99.90;;;;;;5033466;28;20170;-84
2023/12/14 02:36:05;;;;;;;58.87;32.47;;;9.10;99.90;;;;;;5033118;28;20580;-84
2023/12/14 02:38:30;;;;;;;56.30;33.03;;;9.00;99.90;;;;;;5033971;28;20170;-85
2023/12/14 02:40:56;;;;;;;60.93;34.57;;;8.90;99.90;;;;;;5033292;28;20727;-85
2023/12/14 02:43:23;;;;;;;60.17;34.80;;;8.90;99.90;;;;;;5033366;28;20590;-85
2023/12/14 02:45:49;;;;;;;62.83;35.67;;;8.80;99.90;;;;;;5033065;28;20211;-86
2023/12/14 02:48:15;;;;;;;63.23;35.90;;;8.80;99.90;;;;;;5034006;28;20174;-85
2023/12/14 02:50:40;;;;;;;57.03;32.27;;;8.80;99.90;;;;;;5033536;28;20213;-84
2023/12/14 02:53:06;;;;;;;60.17;35.40;;;8.80;99.90;;;;;;5033382;28;20228;-84
2023/12/14 02:55:32;;;;;;;63.87;36.87;;;8.80;99.90;;;;;;5033610;28;20184;-85
2023/12/14 02:57:57;;;;;;;62.83;36.83;;;8.80;99.90;;;;;;5033127;28;20679;-85
2023/12/14 03:00:23;;;;;;;65.20;36.23;;;8.80;99.90;;;;;;5033452;28;20525;-85
2023/12/14 03:02:49;;;;;;;62.03;34.67;;;8.70;99.90;;;;;;5033153;28;20169;-84
2023/12/14 03:05:14;;;;;;;67.43;36.50;;;8.70;99.90;;;;;;5033668;28;20539;-85
2023/12/14 03:07:40;;;;;;;62.67;32.97;;;8.70;99.90;;;;;;5033301;28;20189;-84
2023/12/14 03:10:07;;;;;;;59.17;32.27;;;8.60;99.90;;;;;;5033003;28;20600;-84
2023/12/14 03:12:33;;;;;;;60.30;33.40;;;8.60;99.90;;;;;;5031878;28;20709;-84
2023/12/14 03:14:58;;;;;;;53.07;30.03;;;8.60;99.90;;;;;;5032747;28;20181;-85
2023/12/14 03:17:24;;;;;;;55.43;32.50;;;8.50;99.90;;;;;;5032424;28;20177;-86
2023/12/14 03:19:50;;;;;;;56.87;33.20;;;8.50;99.90;;;;;;5033234;28;20172;-86
2023/12/14 03:22:15;;;;;;;54.37;32.03;;;8.60;99.90;;;;;;5032441;28;20288;-85
2023/12/14 03:24:42;;;;;;;47.13;27.97;;;8.50;99.90;;;;;;5032593;28;20177;-86
2023/12/14 03:27:07;;;;;;;48.07;29.03;;;8.50;99.90;;;;;;5032472;28;20173;-84
2023/12/14 03:29:33;;;;;;;42.73;25.87;;;8.50;99.90;;;;;;5032670;28;20197;-86
2023/12/14 03:31:59;;;;;;;40.17;25.57;;;8.40;99.90;;;;;;5032414;28;20272;-85
2023/12/14 03:34:25;;;;;;;40.03;23.30;;;8.30;99.90;;;;;;5032843;28;20304;-85
2023/12/14 03:36:50;;;;;;;42.03;23.93;;;8.20;99.90;;;;;;5032922;28;20169;-85
2023/12/14 03:39:17;;;;;;;40.77;23.83;;;8.10;99.90;;;;;;5032358;28;20669;-84
2023/12/14 03:41:44;;;;;;;30.27;18.07;;;8.10;99.90;;;;;;5032502;28;20174;-86
2023/12/14 03:44:09;;;;;;;37.23;22.50;;;8.00;99.90;;;;;;5032008;28;20672;-84
2023/12/14 03:46:35;;;;;;;32.67;19.90;;;8.00;99.90;;;;;;5032924;28;20189;-86
2023/12/14 03:49:01;;;;;;;34.13;20.13;;;7.90;99.90;;;;;;5032572;28;20169;-85
2023/12/14 03:51:27;;;;;;;34.47;20.90;;;7.90;99.90;;;;;;5033945;28;20208;-85
2023/12/14 03:53:53;;;;;;;33.13;19.50;;;7.80;99.90;;;;;;5031720;28;20268;-85
2023/12/14 03:56:19;;;;;;;33.77;21.03;;;7.80;99.90;;;;;;5031928;28;20219;-85
2023/12/14 03:58:44;;;;;;;30.77;19.20;;;7.70;99.90;;;;;;5031753;28;20173;-84
2023/12/14 04:01:17;;;;;;;29.67;19.93;;;7.80;99.90;;;;;;5031430;28;20228;-87
2023/12/14 04:03:44;;;;;;;29.63;18.03;;;7.70;99.90;;;;;;5031329;28;20173;-84
2023/12/14 04:06:10;;;;;;;27.87;18.50;;;7.70;99.90;;;;;;5032053;28;20204;-85
2023/12/14 04:08:36;;;;;;;32.17;20.43;;;7.70;99.90;;;;;;5031902;28;20198;-85
2023/12/14 04:11:02;;;;;;;31.80;21.50;;;7.80;99.90;;;;;;5031279;28;20213;-85
2023/12/14 04:13:27;;;;;;;26.57;18.50;;;7.80;99.90;;;;;;5031505;28;20170;-86
2023/12/14 04:15:53;;;;;;;29.93;20.20;;;7.90;99.90;;;;;;5032369;28;20173;-86
2023/12/14 04:18:19;;;;;;;27.60;19.23;;;7.80;99.90;;;;;;5031610;28;20173;-85
2023/12/14 04:20:44;;;;;;;26.43;20.93;;;7.70;99.90;;;;;;5032275;28;20656;-86
2023/12/14 04:23:10;;;;;;;27.60;19.97;;;7.70;99.90;;;;;;5031754;28;20243;-87
2023/12/14 04:25:36;;;;;;;23.40;18.50;;;7.70;99.90;;;;;;5030365;28;20173;-85
2023/12/14 04:28:01;;;;;;;24.37;18.20;;;7.60;99.90;;;;;;5032049;28;20200;-85
2023/12/14 04:30:27;;;;;;;26.57;20.00;;;7.60;99.90;;;;;;5031984;28;20212;-86
2023/12/14 04:32:53;;;;;;;24.03;17.10;;;7.60;99.90;;;;;;5031885;28;20264;-84
2023/12/14 04:35:22;;;;;;;22.83;17.47;;;7.60;99.90;;;;;;5031394;28;20185;-86
2023/12/14 04:37:49;;;;;;;23.87;18.30;;;7.60;99.90;;;;;;5031106;28;20651;-83
2023/12/14 04:40:14;;;;;;;25.13;19.17;;;7.60;99.90;;;;;;5031893;28;20189;-85
2023/12/14 04:42:40;;;;;;;25.30;19.60;;;7.40;99.90;;;;;;5031435;28;20188;-84
2023/12/14 04:45:06;;;;;;;24.63;19.13;;;7.50;99.90;;;;;;5031256;28;20182;-84
2023/12/14 04:47:32;;;;;;;29.00;20.30;;;7.50;99.90;;;;;;5031233;28;20181;-85
2023/12/14 04:49:58;;;;;;;26.03;19.30;;;7.50;99.90;;;;;;5031537;28;20580;-83
2023/12/14 04:52:23;;;;;;;26.43;20.57;;;7.50;99.90;;;;;;5030677;28;20236;-83
2023/12/14 04:54:49;;;;;;;25.77;20.80;;;7.50;99.90;;;;;;5031371;28;20180;-83
2023/12/14 04:57:15;;;;;;;25.47;20.47;;;7.50;99.90;;;;;;5031285;28;20208;-83
2023/12/14 04:59:44;;;;;;;27.73;21.17;;;7.50;99.90;;;;;;5015178;28;20231;-86
2023/12/14 05:02:10;;;;;;;27.73;21.13;;;7.60;99.90;;;;;;5011598;28;20185;-85
2023/12/14 05:04:35;;;;;;;27.93;21.93;;;7.50;99.90;;;;;;5013770;28;20174;-85
2023/12/14 05:07:01;;;;;;;28.73;21.37;;;7.50;99.90;;;;;;5015455;28;20263;-84
2023/12/14 05:09:27;;;;;;;27.80;17.53;;;7.60;99.90;;;;;;5015349;28;20221;-86
2023/12/14 05:11:53;;;;;;;26.23;20.57;;;7.50;99.90;;;;;;5018615;28;20178;-84
2023/12/14 05:14:19;;;;;;;23.87;19.30;;;7.40;99.90;;;;;;5015291;28;20292;-85
2023/12/14 05:16:44;;;;;;;26.33;20.23;;;7.40;99.90;;;;;;5015142;28;20178;-86
2023/12/14 05:19:10;;;;;;;25.83;21.13;;;7.40;99.90;;;;;;5015028;28;20240;-86
2023/12/14 05:21:36;;;;;;;25.67;19.97;;;7.40;99.90;;;;;;5014733;28;20549;-86
2023/12/14 05:24:02;;;;;;;23.47;18.37;;;7.40;99.90;;;;;;5015791;28;20185;-86
2023/12/14 05:26:28;;;;;;;22.50;18.40;;;7.30;99.90;;;;;;5014097;28;20182;-86
2023/12/14 05:28:54;;;;;;;23.43;20.33;;;7.30;99.90;;;;;;5018727;28;20181;-87
2023/12/14 05:31:19;;;;;;;24.27;20.37;;;7.40;99.90;;;;;;5014793;28;20275;-84
2023/12/14 05:33:45;;;;;;;24.77;19.83;;;7.50;99.90;;;;;;5015459;28;20185;-85
2023/12/14 05:36:11;;;;;;;23.87;19.13;;;7.50;99.90;;;;;;5014373;28;20178;-84
2023/12/14 05:38:39;;;;;;;24.70;20.53;;;7.50;99.90;;;;;;5014703;28;20178;-85
2023/12/14 05:41:05;;;;;;;23.60;20.37;;;7.40;99.90;;;;;;5014815;28;20198;-86
2023/12/14 05:43:31;;;;;;;23.10;18.83;;;7.50;99.90;;;;;;5015038;28;20630;-86
2023/12/14 05:45:56;;;;;;;24.00;20.93;;;7.50;99.90;;;;;;5014972;28;20189;-86
2023/12/14 05:48:22;;;;;;;24.60;20.83;;;7.60;99.90;;;;;;5014320;28;20171;-85
2023/12/14 05:50:48;;;;;;;24.30;19.67;;;7.60;99.90;;;;;;5015141;28;20788;-86
2023/12/14 05:53:13;;;;;;;22.70;19.67;;;7.60;99.90;;;;;;5014619;28;20743;-86
2023/12/14 05:55:40;;;;;;;23.53;19.43;;;7.60;99.90;;;;;;5014495;28;20178;-84
2023/12/14 05:58:07;;;;;;;25.30;20.40;;;7.60;99.90;;;;;;5014969;28;20737;-83
2023/12/14 06:00:34;;;;;;;26.67;20.80;;;7.60;99.90;;;;;;5014221;28;20178;-83
2023/12/14 06:03:00;;;;;;;25.53;20.20;;;7.70;99.90;;;;;;5014137;28;20174;-85
2023/12/14 06:05:26;;;;;;;26.50;20.00;;;7.60;99.90;;;;;;5013213;28;20188;-84
2023/12/14 06:07:52;;;;;;;24.23;19.10;;;7.50;99.90;;;;;;5013777;28;20293;-84
2023/12/14 06:10:18;;;;;;;30.80;20.10;;;7.50;99.90;;;;;;5021848;28;20213;-86
2023/12/14 06:12:44;;;;;;;24.97;18.60;;;7.60;99.90;;;;;;5033474;28;20208;-86
2023/12/14 06:15:10;;;;;;;21.63;16.60;;;7.70;99.90;;;;;;5032666;28;20548;-85
2023/12/14 06:17:38;;;;;;;23.50;18.70;;;7.50;99.90;;;;;;5033572;28;20177;-84
2023/12/14 06:20:05;;;;;;;21.37;16.20;;;7.40;99.90;;;;;;5033830;28;20257;-86
2023/12/14 06:22:31;;;;;;;20.60;17.50;;;7.40;99.90;;;;;;5033000;28;20264;-87
2023/12/14 06:24:56;;;;;;;26.20;18.27;;;7.50;99.90;;;;;;5033822;28;20647;-85
2023/12/14 06:27:26;;;;;;;22.37;18.83;;;7.50;99.90;;;;;;5033806;28;20178;-84
2023/12/14 06:29:52;;;;;;;21.17;16.43;;;7.50;99.90;;;;;;5035845;28;20193;-86
2023/12/14 06:32:18;;;;;;;21.03;17.90;;;7.40;99.90;;;;;;5033745;28;20176;-84
2023/12/14 06:34:43;;;;;;;21.43;17.93;;;7.50;99.90;;;;;;5033048;28;20173;-84
2023/12/14 06:37:10;;;;;;;24.23;18.87;;;7.50;99.90;;;;;;5033795;28;20587;-87
2023/12/14 06:39:36;;;;;;;22.43;17.97;;;7.50;99.90;;;;;;5016117;28;20178;-87
2023/12/14 06:42:02;;;;;;;23.87;17.40;;;7.50;99.90;;;;;;5033968;28;20652;-84
2023/12/14 06:44:28;;;;;;;23.43;17.83;;;7.50;99.90;;;;;;5033333;28;20173;-86
2023/12/14 06:46:54;;;;;;;22.23;17.47;;;7.50;99.90;;;;;;5033372;28;20219;-84
2023/12/14 06:49:21;;;;;;;24.50;16.17;;;7.50;99.90;;;;;;5032765;28;20173;-84
2023/12/14 06:51:46;;;;;;;21.10;16.67;;;7.50;99.90;;;;;;5032374;28;20625;-85
2023/12/14 06:54:12;;;;;;;21.70;14.73;;;7.50;99.90;;;;;;5033368;28;20188;-85
2023/12/14 06:56:38;;;;;;;21.90;15.47;;;7.40;99.90;;;;;;5033261;28;20182;-86
2023/12/14 06:59:04;;;;;;;19.23;14.67;;;7.50;99.90;;;;;;5031910;28;20181;-84
2023/12/14 07:01:30;;;;;;;24.40;16.13;;;7.30;99.90;;;;;;5032219;28;20217;-84
2023/12/14 07:03:55;;;;;;;20.93;16.47;;;7.30;99.90;;;;;;5032403;28;20256;-82
2023/12/14 07:06:21;;;;;;;19.37;15.13;;;7.40;99.90;;;;;;5031559;28;20249;-85
2023/12/14 07:08:47;;;;;;;18.23;14.60;;;7.40;99.90;;;;;;5032492;28;20669;-84
2023/12/14 07:11:13;;;;;;;21.03;14.53;;;7.40;99.90;;;;;;5031010;28;20213;-84
2023/12/14 07:13:40;;;;;;;20.70;15.63;;;7.40;99.90;;;;;;5023005;28;20252;-84
2023/12/14 07:16:07;;;;;;;19.83;14.43;;;7.30;99.90;;;;;;5013166;28;20258;-84
2023/12/14 07:18:34;;;;;;;18.50;14.20;;;7.30;99.90;;;;;;5012070;28;20197;-86
2023/12/14 07:21:01;;;;;;;19.80;13.70;;;7.30;99.90;;;;;;5013328;28;20179;-84
2023/12/14 07:23:27;;;;;;;16.93;13.53;;;7.30;99.90;;;;;;5013272;28;20282;-84
2023/12/14 07:25:53;;;;;;;18.33;14.53;;;7.40;99.90;;;;;;5022745;28;20689;-84
2023/12/14 07:28:18;;;;;;;19.10;13.73;;;7.50;99.90;;;;;;5021980;28;20174;-84
2023/12/14 07:30:46;;;;;;;16.53;12.67;;;7.50;99.90;;;;;;5023126;28;20209;-85
2023/12/14 07:33:12;;;;;;;17.20;12.17;;;7.40;99.90;;;;;;5031847;28;20170;-83
2023/12/14 07:35:37;;;;;;;16.40;11.47;;;7.50;99.90;;;;;;5032548;28;20170;-84
2023/12/14 07:38:03;;;;;;;15.37;12.07;;;7.40;99.90;;;;;;5032479;28;20174;-84
2023/12/14 07:40:29;;;;;;;15.17;11.77;;;7.40;99.90;;;;;;5031990;28;20570;-83
2023/12/14 07:42:55;;;;;;;15.23;12.10;;;7.70;99.90;;;;;;5032896;28;20196;-84
2023/12/14 07:45:20;;;;;;;17.93;12.97;;;7.60;99.90;;;;;;5031614;28;20173;-84
2023/12/14 07:47:46;;;;;;;16.90;12.73;;;7.90;99.90;;;;;;5029552;28;20321;-84
2023/12/14 07:50:12;;;;;;;18.17;12.53;;;7.90;99.90;;;;;;5030356;28;20210;-86
2023/12/14 07:52:38;;;;;;;15.10;11.30;;;7.80;99.90;;;;;;5030125;28;20181;-87
2023/12/14 07:55:05;;;;;;;15.93;12.43;;;7.80;99.90;;;;;;5031410;28;20173;-86
2023/12/14 07:57:31;;;;;;;18.53;10.90;;;7.70;99.90;;;;;;5030026;28;20205;-86
2023/12/14 07:59:57;;;;;;;17.17;12.67;;;7.80;99.90;;;;;;5030072;28;20228;-85
2023/12/14 08:02:23;;;;;;;17.93;12.40;;;7.80;99.90;;;;;;5030628;28;20177;-86
2023/12/14 08:04:48;;;;;;;16.60;12.27;;;7.90;99.90;;;;;;5031979;28;20666;-84
2023/12/14 08:07:14;;;;;;;19.20;12.27;;;8.10;99.90;;;;;;5031850;28;20216;-83
2023/12/14 08:09:40;;;;;;;15.43;12.17;;;8.10;99.90;;;;;;5031378;28;20216;-83
2023/12/14 08:12:07;;;;;;;15.30;11.97;;;8.20;99.90;;;;;;5031068;28;20595;-83
2023/12/14 08:14:38;;;;;;;13.53;10.63;;;8.10;99.90;;;;;;5031447;28;20170;-84
2023/12/14 08:17:04;;;;;;;13.60;10.27;;;8.20;99.90;;;;;;5032002;28;20643;-87
2023/12/14 08:19:30;;;;;;;12.53;9.20;;;8.10;99.90;;;;;;5033415;28;20174;-84
2023/12/14 08:21:56;;;;;;;13.77;9.83;;;8.00;99.90;;;;;;5031825;28;20243;-84
2023/12/14 08:24:22;;;;;;;12.30;9.20;;;8.10;99.90;;;;;;5031851;28;20170;-82
2023/12/14 08:26:47;;;;;;;12.67;8.63;;;8.10;99.90;;;;;;5032046;28;20181;-83
2023/12/14 08:29:13;;;;;;;13.77;9.17;;;8.10;99.90;;;;;;5031680;28;20192;-83
2023/12/14 08:31:39;;;;;;;10.40;8.47;;;7.90;99.90;;;;;;5032323;28;20213;-83
2023/12/14 08:34:04;;;;;;;13.03;9.67;;;8.00;99.90;;;;;;5032507;28;20166;-83
2023/12/14 08:36:31;;;;;;;13.30;8.60;;;8.10;99.90;;;;;;5032229;28;20209;-86
2023/12/14 08:38:58;;;;;;;13.20;8.47;;;8.00;99.90;;;;;;5024894;28;20186;-84
2023/12/14 08:41:24;;;;;;;15.20;8.90;;;7.90;99.90;;;;;;5013553;28;20236;-85
2023/12/14 08:43:49;;;;;;;19.90;9.53;;;8.00;99.90;;;;;;5011670;28;20174;-85
2023/12/14 08:46:15;;;;;;;15.40;9.20;;;8.00;99.90;;;;;;5011493;28;20182;-84
2023/12/14 08:48:40;;;;;;;15.47;10.13;;;8.20;99.90;;;;;;5011402;28;20181;-83
2023/12/14 08:51:06;;;;;;;17.33;9.90;;;8.30;99.90;;;;;;5011628;28;20221;-84
2023/12/14 08:53:33;;;;;;;17.53;10.63;;;8.30;99.90;;;;;;5011935;28;20284;-82
2023/12/14 08:55:59;;;;;;;18.00;10.80;;;8.30;99.90;;;;;;5013048;28;20209;-83
2023/12/14 08:58:24;;;;;;;13.47;10.97;;;8.50;99.90;;;;;;5013036;28;20653;-83
2023/12/14 09:00:53;;;;;;;15.97;10.73;;;8.60;99.90;;;;;;5015150;28;20209;-86
2023/12/14 09:03:19;;;;;;;17.57;10.87;;;8.60;99.90;;;;;;5021643;28;20739;-85
2023/12/14 09:05:45;;;;;;;16.57;11.63;;;8.40;99.90;;;;;;5011301;28;20261;-86
2023/12/14 09:08:11;;;;;;;17.13;10.30;;;8.50;99.90;;;;;;5012873;28;20270;-83
2023/12/14 09:10:38;;;;;;;16.23;10.10;;;8.50;99.90;;;;;;5011324;28;20640;-86
2023/12/14 09:13:04;;;;;;;11.53;8.83;;;8.40;99.90;;;;;;5011693;28;20170;-86
2023/12/14 09:15:33;;;;;;;15.43;9.10;;;8.40;99.90;;;;;;5010698;28;20179;-83
2023/12/14 09:17:59;;;;;;;12.30;8.77;;;8.40;99.90;;;;;;5011399;28;20181;-83
2023/12/14 09:20:26;;;;;;;13.50;9.13;;;8.30;99.90;;;;;;5011264;28;20175;-85
2023/12/14 09:22:52;;;;;;;13.80;9.00;;;8.40;99.90;;;;;;5011460;28;20185;-87
2023/12/14 09:25:19;;;;;;;14.10;9.27;;;8.50;99.90;;;;;;5011613;28;20305;-86
2023/12/14 09:27:45;;;;;;;9.93;7.70;;;8.30;99.90;;;;;;5011475;28;20182;-84
2023/12/14 09:30:13;;;;;;;10.47;8.80;;;8.30;99.90;;;;;;5011271;28;20303;-84
2023/12/14 09:32:39;;;;;;;13.00;8.03;;;8.20;99.90;;;;;;5011355;28;20181;-85
2023/12/14 09:35:06;;;;;;;13.23;7.17;;;8.40;99.90;;;;;;5011388;28;20188;-87
2023/12/14 09:37:32;;;;;;;11.90;7.10;;;8.40;99.90;;;;;;5011377;28;20249;-87
2023/12/14 09:39:57;;;;;;;12.40;8.03;;;8.50;99.90;;;;;;5011058;28;20185;-84
2023/12/14 09:42:23;;;;;;;15.23;8.53;;;8.60;99.90;;;;;;5011267;28;20185;-85
2023/12/14 09:44:52;;;;;;;12.37;8.43;;;8.60;99.90;;;;;;5011305;28;20201;-84
2023/12/14 09:47:18;;;;;;;12.93;7.87;;;8.80;99.60;;;;;;5012426;28;20579;-86
2023/12/14 09:49:45;;;;;;;12.83;7.67;;;8.90;98.40;;;;;;5012834;28;20213;-87
2023/12/14 09:52:11;;;;;;;13.00;7.83;;;9.00;97.00;;;;;;5014560;28;20285;-86
2023/12/14 09:54:37;;;;;;;13.83;7.57;;;9.00;96.40;;;;;;5014624;28;20209;-85
2023/12/14 09:57:03;;;;;;;12.70;6.80;;;8.90;95.20;;;;;;5014257;28;20166;-86
2023/12/14 09:59:29;;;;;;;11.43;6.93;;;8.80;94.70;;;;;;5015810;28;20255;-84
2023/12/14 10:02:12;;;;;;;11.23;6.70;;;8.60;96.00;;;;;;5014055;28;20174;-84
2023/12/14 10:04:38;;;;;;;12.47;6.93;;;8.60;96.50;;;;;;5016048;28;20725;-86
2023/12/14 10:07:06;;;;;;;13.77;7.00;;;8.40;99.90;;;;;;5015926;28;20285;-86
2023/12/14 10:09:33;;;;;;;11.70;7.13;;;8.50;99.90;;;;;;5014410;28;20583;-85
2023/12/14 10:12:05;;;;;;;10.87;6.63;;;8.70;99.10;;;;;;5014383;28;20187;-85
2023/12/14 10:14:31;;;;;;;12.50;7.00;;;8.70;97.70;;;;;;5014569;28;20178;-86
2023/12/14 10:16:56;;;;;;;9.47;5.70;;;8.80;96.40;;;;;;5014108;28;20173;-86
2023/12/14 10:19:22;;;;;;;10.20;6.07;;;8.80;94.30;;;;;;5014581;28;20178;-86
2023/12/14 10:21:49;;;;;;;9.73;6.60;;;8.80;94.80;;;;;;5014230;28;20213;-84
2023/12/14 10:24:16;;;;;;;12.70;8.07;;;8.80;94.50;;;;;;5013871;28;20181;-86
2023/12/14 10:26:44;;;;;;;10.77;6.77;;;8.70;95.80;;;;;;5014843;28;20182;-84
2023/12/14 10:29:10;;;;;;;14.40;8.37;;;8.70;96.70;;;;;;5013816;28;20182;-83
2023/12/14 10:31:37;;;;;;;12.80;8.30;;;8.80;97.30;;;;;;5014885;28;20256;-85
2023/12/14 10:34:03;;;;;;;11.10;6.53;;;8.80;97.50;;;;;;5013459;28;20178;-87
2023/12/14 10:36:30;;;;;;;9.33;6.83;;;8.80;97.60;;;;;;5013437;28;20217;-83
2023/12/14 10:38:58;;;;;;;10.03;6.47;;;8.70;98.80;;;;;;5014904;28;20197;-83
2023/12/14 10:41:24;;;;;;;12.20;6.67;;;8.70;99.00;;;;;;5013496;28;20677;-86
2023/12/14 10:43:53;;;;;;;11.30;5.87;;;8.70;99.90;;;;;;5013324;28;20170;-84
2023/12/14 10:46:20;;;;;;;10.90;6.20;;;8.70;99.90;;;;;;5013314;28;20226;-84
2023/12/14 10:48:49;;;;;;;10.57;6.20;;;8.80;97.90;;;;;;5013621;28;20178;-84
2023/12/14 10:51:17;;;;;;;12.87;6.17;;;8.70;97.90;;;;;;5013540;28;20222;-86
2023/12/14 10:53:47;;;;;;;12.97;6.77;;;8.80;98.50;;;;;;5013645;28;20178;-86
2023/12/14 10:56:13;;;;;;;11.57;6.37;;;8.90;99.40;;;;;;5012956;28;20180;-85
2023/12/14 10:58:53;;;;;;;13.33;6.57;;;8.90;98.50;;;;;;5013256;28;20220;-84
2023/12/14 11:01:20;;;;;;;11.83;6.43;;;8.90;96.80;;;;;;5012554;28;20177;-87
2023/12/14 11:03:49;;;;;;;9.17;5.83;;;9.00;97.40;;;;;;5013171;28;20170;-84
2023/12/14 11:06:24;;;;;;;10.10;6.37;;;8.90;96.70;;;;;;5013227;28;20178;-83
2023/12/14 11:08:56;;;;;;;9.93;6.23;;;8.90;96.20;;;;;;5014555;28;20520;-83
2023/12/14 11:11:22;;;;;;;12.47;6.57;;;9.00;97.00;;;;;;5012857;28;20218;-87
2023/12/14 11:13:54;;;;;;;12.47;6.17;;;9.00;96.70;;;;;;5013494;28;20236;-84
2023/12/14 11:16:25;;;;;;;18.40;11.90;;;9.00;95.30;;;;;;5013140;28;20638;-85
2023/12/14 11:19:22;;;;;;;13.47;8.70;;;9.00;96.90;;;;;;5012821;28;20189;-85
2023/12/14 11:21:58;;;;;;;10.67;6.43;;;9.00;95.30;;;;;;5013612;28;20653;-85
2023/12/14 11:24:25;;;;;;;10.93;6.23;;;8.90;97.90;;;;;;5021642;28;20169;-84
2023/12/14 11:26:51;;;;;;;11.77;7.20;;;9.00;99.60;;;;;;5031671;28;20184;-87
2023/12/14 11:29:19;;;;;;;9.57;6.40;;;9.00;99.90;;;;;;5031686;28;20181;-83
2023/12/14 11:31:45;;;;;;;11.33;6.47;;;9.10;99.20;;;;;;5023729;28;20222;-87
2023/12/14 11:34:12;;;;;;;12.27;8.27;;;9.10;99.70;;;;;;5026211;28;20173;-83
2023/12/14 11:36:41;;;;;;;13.70;7.80;;;9.10;99.90;;;;;;5016271;28;20198;-86
2023/12/14 11:39:08;;;;;;;11.80;7.63;;;9.00;99.90;;;;;;5017400;28;20242;-85
2023/12/14 11:41:34;;;;;;;11.53;7.63;;;9.00;99.90;;;;;;5012569;28;20174;-82
2023/12/14 11:43:59;;;;;;;18.73;7.67;;;9.10;99.90;;;;;;5029516;28;20181;-83
2023/12/14 11:46:25;;;;;;;14.63;7.63;;;9.10;99.90;;;;;;5032146;28;20273;-86
2023/12/14 11:48:51;;;;;;;12.27;7.50;;;9.00;99.90;;;;;;5028427;28;20725;-86
2023/12/14 11:51:18;;;;;;;15.10;8.23;;;8.90;99.90;;;;;;5027366;28;20202;-85
2023/12/14 11:53:50;;;;;;;14.40;8.50;;;9.00;99.90;;;;;;5028251;28;20208;-86
2023/12/14 11:56:20;;;;;;;14.27;8.40;;;9.10;99.90;;;;;;5022899;28;20260;-86
2023/12/14 11:58:47;;;;;;;12.27;7.63;;;9.20;99.90;;;;;;5024669;28;20592;-87
2023/12/14 12:01:14;;;;;;;12.13;8.17;;;9.20;99.90;;;;;;5018422;28;20178;-86
2023/12/14 12:03:39;;;;;;;13.07;7.87;;;9.20;99.90;;;;;;5030830;28;20259;-86
2023/12/14 12:06:05;;;;;;;15.90;9.40;;;9.10;99.90;;;;;;5030579;28;20196;-85
2023/12/14 12:08:40;;;;;;;15.43;8.63;;;9.10;99.90;;;;;;5047821;28;20181;-85
2023/12/14 12:11:06;;;;;;;14.03;9.37;;;9.00;99.90;;;;;;5021098;28;20239;-85
2023/12/14 12:13:34;;;;;;;14.07;8.73;;;9.00;99.90;;;;;;5024569;28;20587;-86
2023/12/14 12:16:00;;;;;;;15.50;8.97;;;9.00;99.90;;;;;;5019630;28;20714;-84
2023/12/14 12:18:27;;;;;;;11.83;8.50;;;8.90;99.90;;;;;;5019833;28;20274;-85
2023/12/14 12:20:53;;;;;;;15.43;9.83;;;8.90;99.90;;;;;;5020775;28;20599;-86
2023/12/14 12:23:19;;;;;;;12.93;8.10;;;9.00;99.90;;;;;;5025252;28;20202;-86
2023/12/14 12:25:44;;;;;;;15.43;9.10;;;8.90;99.90;;;;;;5013086;28;20245;-85
2023/12/14 12:28:10;;;;;;;14.77;8.27;;;8.90;99.90;;;;;;5017087;28;20181;-87
2023/12/14 12:30:36;;;;;;;10.37;8.00;;;8.90;99.90;;;;;;5027165;28;20577;-88
2023/12/14 12:33:01;;;;;;;13.17;8.10;;;8.90;99.90;;;;;;5026734;28;20541;-84
2023/12/14 12:35:30;;;;;;;13.50;7.53;;;9.00;99.90;;;;;;5028025;28;20178;-86